createdAt,value
2022-11-04T00:01:46.596Z,61.92
2022-11-04T00:04:15.104Z,61.05
2022-11-04T00:06:41.731Z,61.28
2022-11-04T00:09:11.662Z,57.60
2022-11-04T00:11:56.695Z,67.80
2022-11-04T00:14:23.065Z,69.57
2022-11-04T00:17:07.999Z,71.32
2022-11-04T00:20:12.495Z,72.40
2022-11-04T00:23:00.254Z,69.40
2022-11-04T00:25:45.389Z,63.28
2022-11-04T00:28:31.647Z,67.32
2022-11-04T00:31:23.228Z,67.20
2022-11-04T00:33:51.080Z,73.68
2022-11-04T00:36:17.621Z,81.28
2022-11-04T00:38:43.977Z,77.57
2022-11-04T00:41:29.963Z,83.20
2022-11-04T00:44:02.412Z,71.53
2022-11-04T00:46:30.622Z,72.80
2022-11-04T00:48:57.718Z,74.82
2022-11-04T00:51:24.587Z,72.10
2022-11-04T00:53:51.825Z,70.25
2022-11-04T00:56:18.117Z,76.53
2022-11-04T00:58:44.500Z,78.63
2022-11-04T01:01:13.008Z,82.25
2022-11-04T01:03:39.633Z,78.57
2022-11-04T01:06:06.841Z,65.85
2022-11-04T01:08:33.350Z,70.30
2022-11-04T01:11:03.972Z,65.07
2022-11-04T01:13:30.941Z,67.30
2022-11-04T01:16:01.581Z,65.53
2022-11-04T01:18:27.951Z,62.13
2022-11-04T01:20:54.379Z,64.53
2022-11-04T01:23:21.056Z,61.63
2022-11-04T01:25:47.381Z,59.65
2022-11-04T01:28:13.704Z,57.10
2022-11-04T01:30:40.097Z,59.38
2022-11-04T01:33:06.466Z,59.25
2022-11-04T01:35:32.819Z,57.10
2022-11-04T01:37:59.284Z,56.97
2022-11-04T01:40:25.748Z,57.42
2022-11-04T01:42:52.367Z,56.70
2022-11-04T01:45:21.235Z,53.28
2022-11-04T01:48:00.951Z,58.45
2022-11-04T01:50:30.829Z,51.75
2022-11-04T01:53:07.319Z,56.22
2022-11-04T01:55:37.441Z,55.22
2022-11-04T01:58:11.066Z,56.53
2022-11-04T02:00:42.052Z,56.20
2022-11-04T02:03:38.221Z,53.15
2022-11-04T02:06:05.892Z,61.00
2022-11-04T02:08:32.520Z,56.92
2022-11-04T02:11:01.152Z,53.45
2022-11-04T02:13:30.222Z,57.85
2022-11-04T02:16:15.371Z,58.22
2022-11-04T02:18:58.789Z,63.92
2022-11-04T02:21:53.479Z,65.82
2022-11-04T02:24:38.237Z,63.47
2022-11-04T02:30:13.602Z,54.28
2022-11-04T02:33:11.679Z,56.60
2022-11-04T02:35:38.139Z,60.17
2022-11-04T02:38:24.719Z,61.30
2022-11-04T02:41:14.340Z,63.38
2022-11-04T02:44:12.335Z,61.85
2022-11-04T02:46:41.792Z,62.15
2022-11-04T02:49:15.605Z,64.47
2022-11-04T02:54:34.513Z,58.80
2022-11-04T02:57:03.567Z,61.33
2022-11-04T02:59:36.315Z,59.80
2022-11-04T03:02:07.976Z,62.17
2022-11-04T03:04:39.294Z,57.97
2022-11-04T03:09:46.162Z,63.55
2022-11-04T03:12:16.867Z,66.68
2022-11-04T03:14:49.908Z,63.90
2022-11-04T03:17:26.683Z,64.47
2022-11-04T03:19:57.310Z,63.97
2022-11-04T03:22:28.203Z,68.78
2022-11-04T03:24:55.109Z,64.90
2022-11-04T03:27:27.519Z,60.00
2022-11-04T03:30:06.452Z,61.50
2022-11-04T03:32:32.781Z,58.35
2022-11-04T03:34:59.433Z,61.28
2022-11-04T03:37:25.874Z,61.60
2022-11-04T03:39:52.293Z,60.88
2022-11-04T03:42:20.543Z,55.35
2022-11-04T03:44:53.128Z,55.90
2022-11-04T03:47:23.046Z,53.05
2022-11-04T03:49:51.118Z,54.13
2022-11-04T03:52:19.003Z,51.17
2022-11-04T03:54:46.564Z,52.20
2022-11-04T03:57:29.629Z,48.97
2022-11-04T04:00:02.981Z,47.92
2022-11-04T04:02:59.880Z,51.87
2022-11-04T04:05:31.964Z,48.85
2022-11-04T04:08:26.723Z,47.90
2022-11-04T04:11:05.736Z,47.90
2022-11-04T04:13:55.630Z,48.60
2022-11-04T04:16:34.422Z,51.10
2022-11-04T04:19:21.170Z,52.00
2022-11-04T04:21:53.653Z,50.25
2022-11-04T04:24:42.045Z,49.88
2022-11-04T04:27:27.824Z,51.40
2022-11-04T04:29:54.601Z,47.58
2022-11-04T04:32:24.615Z,51.42
2022-11-04T04:34:50.968Z,49.13
2022-11-04T04:37:23.817Z,46.65
2022-11-04T04:40:12.863Z,43.10
2022-11-04T04:42:58.066Z,40.47
2022-11-04T04:45:32.845Z,36.30
2022-11-04T04:47:59.585Z,39.55
2022-11-04T04:50:31.277Z,38.65
2022-11-04T04:53:00.043Z,37.13
2022-11-04T04:55:26.730Z,36.28
2022-11-04T04:57:53.063Z,35.13
2022-11-04T05:00:21.095Z,36.75
2022-11-04T05:02:48.898Z,33.38
2022-11-04T05:07:47.970Z,33.00
2022-11-04T05:10:16.008Z,35.70
2022-11-04T05:13:14.935Z,31.98
2022-11-04T05:15:41.242Z,31.65
2022-11-04T05:18:08.049Z,30.77
2022-11-04T05:20:38.176Z,31.25
2022-11-04T05:23:04.539Z,30.75
2022-11-04T05:25:30.873Z,32.53
2022-11-04T05:28:01.833Z,31.63
2022-11-04T05:30:28.909Z,31.80
2022-11-04T05:32:58.533Z,28.35
2022-11-04T05:35:28.056Z,29.65
2022-11-04T05:37:56.355Z,30.17
2022-11-04T05:40:23.702Z,31.52
2022-11-04T05:42:50.050Z,30.60
2022-11-04T05:45:16.642Z,34.55
2022-11-04T05:47:43.092Z,33.83
2022-11-04T05:50:09.644Z,35.50
2022-11-04T05:52:35.994Z,40.47
2022-11-04T05:55:02.310Z,44.83
2022-11-04T05:57:28.679Z,46.90
2022-11-04T05:59:55.120Z,48.53
2022-11-04T06:02:21.552Z,45.83
2022-11-04T06:04:48.169Z,47.03
2022-11-04T06:07:14.689Z,42.88
2022-11-04T06:09:41.336Z,47.85
2022-11-04T06:12:09.701Z,44.13
2022-11-04T06:14:36.150Z,48.28
2022-11-04T06:17:02.691Z,47.80
2022-11-04T06:19:29.108Z,48.38
2022-11-04T06:21:55.557Z,44.97
2022-11-04T06:24:21.889Z,44.47
2022-11-04T06:26:48.240Z,44.65
2022-11-04T06:29:14.527Z,49.17
2022-11-04T06:31:40.888Z,47.00
2022-11-04T06:34:07.247Z,50.17
2022-11-04T06:36:33.563Z,52.00
2022-11-04T06:39:04.415Z,53.53
2022-11-04T06:41:33.603Z,49.60
2022-11-04T06:44:00.178Z,51.47
2022-11-04T06:46:29.180Z,53.15
2022-11-04T06:48:57.000Z,58.55
2022-11-04T06:51:24.341Z,67.78
2022-11-04T06:53:50.872Z,67.18
2022-11-04T06:56:17.517Z,75.75
2022-11-04T06:58:46.906Z,76.70
2022-11-04T07:01:18.583Z,74.70
2022-11-04T07:03:52.826Z,74.93
2022-11-04T07:06:20.324Z,75.78
2022-11-04T07:08:48.047Z,78.55
2022-11-04T07:11:15.301Z,80.05
2022-11-04T07:13:41.747Z,75.55
2022-11-04T07:16:08.928Z,78.30
2022-11-04T07:18:35.767Z,74.75
2022-11-04T07:21:08.625Z,72.20
2022-11-04T07:23:36.218Z,76.95
2022-11-04T07:26:03.757Z,73.38
2022-11-04T07:28:30.216Z,69.70
2022-11-04T07:30:58.396Z,68.03
2022-11-04T07:33:25.983Z,69.82
2022-11-04T07:35:57.055Z,71.05
2022-11-04T07:38:24.669Z,74.28
2022-11-04T07:40:50.959Z,73.15
2022-11-04T07:43:17.351Z,74.18
2022-11-04T07:45:43.907Z,75.57
2022-11-04T07:48:10.865Z,68.38
2022-11-04T07:50:40.647Z,71.50
2022-11-04T07:53:07.892Z,65.18
2022-11-04T07:55:43.047Z,71.82
2022-11-04T07:58:10.017Z,76.93
2022-11-04T08:00:36.363Z,68.47
2022-11-04T08:03:03.055Z,75.45
2022-11-04T08:05:29.497Z,75.00
2022-11-04T08:07:57.569Z,75.57
2022-11-04T08:10:23.930Z,75.57
2022-11-04T08:12:51.681Z,76.53
2022-11-04T08:15:18.427Z,77.25
2022-11-04T08:17:44.962Z,79.68
2022-11-04T08:20:11.935Z,81.15
2022-11-04T08:22:39.015Z,74.55
2022-11-04T08:25:06.100Z,70.15
2022-11-04T08:27:33.772Z,67.47
2022-11-04T08:30:00.098Z,61.13
2022-11-04T08:32:26.473Z,66.20
2022-11-04T08:34:52.784Z,65.78
2022-11-04T08:37:19.107Z,61.75
2022-11-04T08:39:45.405Z,63.35
2022-11-04T08:42:11.718Z,59.63
2022-11-04T08:44:39.633Z,48.25
2022-11-04T08:47:06.270Z,39.50
2022-11-04T08:49:36.936Z,41.35
2022-11-04T08:52:03.857Z,43.70
2022-11-04T08:54:30.390Z,48.42
2022-11-04T08:56:56.730Z,46.40
2022-11-04T08:59:24.872Z,47.65
2022-11-04T09:01:51.324Z,53.05
2022-11-04T09:04:19.493Z,50.80
2022-11-04T09:06:46.607Z,48.45
2022-11-04T09:09:15.372Z,41.58
2022-11-04T09:11:43.537Z,35.75
2022-11-04T09:14:10.847Z,36.35
2022-11-04T09:16:39.966Z,37.55
2022-11-04T09:19:07.123Z,40.92
2022-11-04T09:21:33.665Z,39.17
2022-11-04T09:23:59.972Z,38.60
2022-11-04T09:26:26.790Z,37.33
2022-11-04T09:28:54.903Z,36.17
2022-11-04T09:31:21.639Z,36.33
2022-11-04T09:33:48.037Z,37.08
2022-11-04T09:36:14.465Z,37.92
2022-11-04T09:38:42.583Z,39.13
2022-11-04T09:41:46.349Z,37.78
2022-11-04T09:44:23.620Z,36.72
2022-11-04T09:46:52.016Z,41.95
2022-11-04T09:49:18.619Z,42.03
2022-11-04T09:51:55.923Z,39.28
2022-11-04T09:54:47.482Z,38.60
2022-11-04T09:57:17.998Z,38.10
2022-11-04T09:59:45.656Z,39.90
2022-11-04T10:02:33.894Z,41.67
2022-11-04T10:05:15.290Z,44.05
2022-11-04T10:08:11.913Z,42.90
2022-11-04T10:11:16.016Z,29.92
2022-11-04T10:13:58.936Z,25.35
2022-11-04T10:16:45.039Z,24.02
2022-11-04T10:19:40.915Z,18.48
2022-11-04T10:22:31.107Z,17.08
2022-11-04T10:25:14.159Z,20.17
2022-11-04T10:27:44.819Z,17.67
2022-11-04T10:30:17.249Z,16.23
2022-11-04T10:33:11.570Z,16.52
2022-11-04T10:35:42.519Z,15.38
2022-11-04T10:38:17.547Z,13.88
2022-11-04T10:40:48.602Z,13.43
2022-11-04T10:43:21.077Z,14.50
2022-11-04T10:46:20.318Z,12.88
2022-11-04T10:49:02.865Z,13.02
2022-11-04T10:51:29.206Z,13.25
2022-11-04T10:53:58.579Z,12.25
2022-11-04T10:56:39.519Z,15.13
2022-11-04T10:59:23.266Z,13.20
2022-11-04T11:01:52.951Z,13.00
2022-11-04T11:04:31.345Z,15.30
2022-11-04T11:06:59.272Z,12.13
2022-11-04T11:09:53.389Z,13.02
2022-11-04T11:12:49.985Z,12.90
2022-11-04T11:15:35.559Z,13.77
2022-11-04T11:18:08.070Z,14.82
2022-11-04T11:20:37.819Z,15.00
2022-11-04T11:23:09.726Z,13.02
2022-11-04T11:25:49.910Z,14.10
2022-11-04T11:28:25.009Z,13.65
2022-11-04T11:30:52.231Z,19.00
2022-11-04T11:33:28.300Z,19.20
2022-11-04T11:36:06.804Z,22.17
2022-11-04T11:38:34.675Z,19.60
2022-11-04T11:41:25.224Z,21.40
2022-11-04T11:43:53.754Z,27.00
2022-11-04T11:46:25.570Z,29.67
2022-11-04T11:48:55.343Z,36.60
2022-11-04T11:51:34.978Z,34.50
2022-11-04T11:54:49.236Z,35.63
2022-11-04T12:00:49.234Z,35.92
2022-11-04T12:03:31.108Z,32.72
2022-11-04T12:09:34.663Z,38.03
2022-11-04T12:12:13.622Z,44.85
2022-11-04T12:15:09.670Z,46.47
2022-11-04T12:18:08.250Z,43.47
2022-11-04T12:21:06.941Z,41.10
2022-11-04T12:23:42.259Z,41.50
2022-11-04T12:26:20.651Z,36.35
2022-11-04T12:29:11.789Z,37.75
2022-11-04T12:32:17.026Z,41.67
2022-11-04T12:34:45.339Z,40.38
2022-11-04T12:37:38.232Z,38.38
2022-11-04T12:40:41.480Z,38.50
2022-11-04T12:43:16.644Z,37.45
2022-11-04T12:45:57.696Z,38.20
2022-11-04T12:48:30.843Z,37.55
2022-11-04T12:51:13.480Z,39.38
2022-11-04T12:54:24.503Z,35.92
2022-11-04T12:57:08.212Z,36.80
2022-11-04T12:59:43.155Z,42.33
2022-11-04T13:02:21.479Z,44.15
2022-11-04T13:05:26.505Z,45.45
2022-11-04T13:08:14.602Z,44.97
2022-11-04T13:11:02.294Z,48.25
2022-11-04T13:13:39.473Z,44.60
2022-11-04T13:16:11.979Z,44.58
2022-11-04T13:18:40.337Z,45.00
2022-11-04T13:21:18.607Z,43.78
2022-11-04T13:23:51.511Z,43.92
2022-11-04T13:26:18.614Z,46.05
2022-11-04T13:28:56.166Z,40.70
2022-11-04T13:31:43.771Z,38.03
2022-11-04T13:34:13.520Z,41.00
2022-11-04T13:36:58.280Z,37.90
2022-11-04T13:42:08.132Z,38.75
2022-11-04T13:44:39.911Z,40.70
2022-11-04T13:47:24.821Z,41.92
2022-11-04T13:49:55.333Z,37.38
2022-11-04T13:52:33.316Z,38.90
2022-11-04T13:55:07.033Z,38.85
2022-11-04T13:57:50.727Z,40.53
2022-11-04T14:00:16.970Z,40.08
2022-11-04T14:02:52.154Z,37.97
2022-11-04T14:05:27.385Z,40.35
2022-11-04T14:08:02.806Z,32.30
2022-11-04T14:10:50.819Z,34.72
2022-11-04T14:13:26.389Z,34.45
2022-11-04T14:16:00.591Z,31.33
2022-11-04T14:18:30.922Z,34.70
2022-11-04T14:21:09.363Z,33.25
2022-11-04T14:23:37.681Z,35.05
2022-11-04T14:26:10.450Z,34.53
2022-11-04T14:28:38.461Z,36.90
2022-11-04T14:31:12.546Z,37.13
2022-11-04T14:33:57.036Z,39.25
2022-11-04T14:36:23.347Z,37.53
2022-11-04T14:39:00.728Z,37.17
2022-11-04T14:41:30.032Z,34.90
2022-11-04T14:43:59.779Z,36.55
2022-11-04T14:46:30.919Z,34.50
2022-11-04T14:49:01.175Z,36.80
2022-11-04T14:51:33.369Z,41.67
2022-11-04T14:54:25.465Z,44.50
2022-11-04T14:57:07.671Z,41.28
2022-11-04T14:59:33.976Z,42.35
2022-11-04T15:02:00.704Z,41.22
2022-11-04T15:04:29.548Z,37.78
2022-11-04T15:06:58.707Z,38.70
2022-11-04T15:09:28.769Z,36.38
2022-11-04T15:12:25.473Z,36.28
2022-11-04T15:14:52.333Z,37.85
2022-11-04T15:17:21.733Z,37.33
2022-11-04T15:19:51.900Z,35.30
2022-11-04T15:22:19.231Z,36.40
2022-11-04T15:24:46.328Z,39.75
2022-11-04T15:27:17.229Z,43.97
2022-11-04T15:30:01.158Z,45.78
2022-11-04T15:32:28.368Z,46.33
2022-11-04T15:34:56.533Z,50.38
2022-11-04T15:37:25.413Z,47.17
2022-11-04T15:39:55.174Z,46.35
2022-11-04T15:42:37.283Z,47.80
2022-11-04T15:45:49.958Z,46.85
2022-11-04T15:48:31.089Z,48.38
2022-11-04T15:51:19.278Z,47.65
2022-11-04T15:53:55.427Z,49.25
2022-11-04T15:56:27.433Z,48.78
2022-11-04T15:58:55.645Z,50.88
2022-11-04T16:01:23.043Z,49.70
2022-11-04T16:03:57.942Z,69.35
2022-11-04T16:07:02.671Z,69.63
2022-11-04T16:09:29.071Z,53.90
2022-11-04T16:12:08.797Z,49.22
2022-11-04T16:14:35.602Z,51.92
2022-11-04T16:17:02.034Z,52.60
2022-11-04T16:19:30.177Z,51.80
2022-11-04T16:22:09.520Z,53.00
2022-11-04T16:24:39.159Z,53.83
2022-11-04T16:27:10.837Z,55.38
2022-11-04T16:29:39.831Z,57.42
2022-11-04T16:32:30.021Z,59.03
2022-11-04T16:35:00.863Z,60.75
2022-11-04T16:37:28.238Z,64.15
2022-11-04T16:39:54.758Z,65.35
2022-11-04T16:42:22.069Z,64.13
2022-11-04T16:44:51.276Z,64.85
2022-11-04T16:47:18.877Z,60.05
2022-11-04T16:49:45.959Z,63.30
2022-11-04T16:52:22.973Z,61.00
2022-11-04T16:54:49.601Z,59.08
2022-11-04T16:57:16.541Z,62.47
2022-11-04T16:59:43.313Z,64.05
2022-11-04T17:02:25.393Z,63.35
2022-11-04T17:04:52.027Z,59.38
2022-11-04T17:07:18.365Z,64.57
2022-11-04T17:09:44.712Z,60.42
2022-11-04T17:12:11.199Z,64.35
2022-11-04T17:14:37.609Z,61.72
2022-11-04T17:17:04.832Z,66.10
2022-11-04T17:19:34.795Z,64.47
2022-11-04T17:22:04.154Z,64.07
2022-11-04T17:24:30.939Z,67.70
2022-11-04T17:26:57.387Z,65.72
2022-11-04T17:29:23.808Z,66.65
2022-11-04T17:31:50.367Z,65.45
2022-11-04T17:34:16.828Z,65.10
2022-11-04T17:36:43.161Z,63.80
2022-11-04T17:39:09.576Z,63.25
2022-11-04T17:41:54.489Z,65.50
2022-11-04T17:44:20.788Z,67.63
2022-11-04T17:46:48.703Z,62.67
2022-11-04T17:49:17.546Z,67.22
2022-11-04T17:51:46.987Z,68.25
2022-11-04T17:54:13.774Z,67.38
2022-11-04T17:56:40.852Z,65.40
2022-11-04T17:59:08.371Z,71.43
2022-11-04T18:01:36.588Z,70.78
2022-11-04T18:04:03.247Z,71.20
2022-11-04T18:06:31.960Z,69.93
2022-11-04T18:08:59.665Z,70.90
2022-11-04T18:11:46.558Z,69.65
2022-11-04T18:14:16.870Z,74.15
2022-11-04T18:16:46.041Z,72.97
2022-11-04T18:19:13.423Z,73.00
2022-11-04T18:21:40.372Z,72.47
2022-11-04T18:24:07.224Z,74.03
2022-11-04T18:26:33.636Z,74.60
2022-11-04T18:29:01.063Z,81.70
2022-11-04T18:31:30.666Z,81.55
2022-11-04T18:34:02.276Z,75.22
2022-11-04T18:36:29.800Z,82.00
2022-11-04T18:38:56.694Z,83.95
2022-11-04T18:41:23.040Z,78.32
2022-11-04T18:43:49.387Z,79.13
2022-11-04T18:46:16.787Z,77.25
2022-11-04T18:48:48.039Z,82.55
2022-11-04T18:51:14.500Z,77.85
2022-11-04T18:53:40.932Z,84.32
2022-11-04T18:56:30.782Z,81.07
2022-11-04T18:58:57.159Z,88.05
2022-11-04T19:01:26.445Z,79.75
2022-11-04T19:03:53.213Z,76.97
2022-11-04T19:06:25.833Z,81.65
2022-11-04T19:08:55.909Z,75.57
2022-11-04T19:11:25.685Z,76.88
2022-11-04T19:13:54.857Z,76.60
2022-11-04T19:16:21.811Z,76.50
2022-11-04T19:18:49.391Z,81.03
2022-11-04T19:21:18.821Z,76.00
2022-11-04T19:23:45.809Z,75.15
2022-11-04T19:26:15.084Z,76.28
2022-11-04T19:28:48.185Z,74.72
2022-11-04T19:31:19.287Z,76.53
2022-11-04T19:33:47.205Z,77.82
2022-11-04T19:36:16.188Z,79.80
2022-11-04T19:38:43.696Z,75.05
2022-11-04T19:41:34.569Z,78.05
2022-11-04T19:44:02.801Z,78.93
2022-11-04T19:46:29.433Z,75.63
2022-11-04T19:48:56.491Z,77.75
2022-11-04T19:51:26.620Z,77.50
2022-11-04T19:56:24.291Z,78.93
2022-11-04T19:58:50.728Z,77.72
2022-11-04T20:01:18.488Z,85.70
2022-11-04T20:03:45.013Z,79.90
2022-11-04T20:06:18.687Z,79.07
2022-11-04T20:08:54.435Z,79.75
2022-11-04T20:11:21.068Z,80.43
2022-11-04T20:13:48.413Z,76.72
2022-11-04T20:16:18.341Z,76.70
2022-11-04T20:18:47.088Z,77.00
2022-11-04T20:21:14.611Z,76.53
2022-11-04T20:23:41.872Z,70.15
2022-11-04T20:26:20.398Z,72.38
2022-11-04T20:28:47.655Z,73.50
2022-11-04T20:31:19.354Z,67.18
2022-11-04T20:33:48.119Z,69.95
2022-11-04T20:36:17.178Z,74.25
2022-11-04T20:38:43.616Z,69.68
2022-11-04T20:41:15.343Z,69.60
2022-11-04T20:43:41.671Z,73.40
2022-11-04T20:46:14.520Z,73.25
2022-11-04T20:48:40.905Z,68.82
2022-11-04T20:51:09.744Z,70.07
2022-11-04T20:53:36.360Z,68.95
2022-11-04T20:56:07.541Z,75.38
2022-11-04T20:58:35.500Z,66.45
2022-11-04T21:01:03.677Z,66.95
2022-11-04T21:03:30.206Z,69.70
2022-11-04T21:05:57.176Z,68.80
2022-11-04T21:08:24.212Z,68.45
2022-11-04T21:10:52.188Z,70.07
2022-11-04T21:13:18.509Z,65.88
2022-11-04T21:15:44.842Z,67.43
2022-11-04T21:18:12.975Z,67.15
2022-11-04T21:20:41.778Z,70.70
2022-11-04T21:23:12.823Z,68.43
2022-11-04T21:25:45.512Z,65.15
2022-11-04T21:28:13.111Z,68.28
2022-11-04T21:30:42.877Z,65.60
2022-11-04T21:33:09.343Z,66.97
2022-11-04T21:35:37.307Z,67.20
2022-11-04T21:38:05.139Z,67.60
2022-11-04T21:40:31.733Z,66.40
2022-11-04T21:42:58.410Z,67.63
2022-11-04T21:45:25.128Z,70.70
2022-11-04T21:47:51.653Z,67.60
2022-11-04T21:50:18.511Z,74.65
2022-11-04T21:52:45.373Z,72.45
2022-11-04T21:55:12.190Z,69.13
2022-11-04T21:57:38.905Z,70.07
2022-11-04T22:00:06.916Z,70.32
2022-11-04T22:02:42.623Z,71.72
2022-11-04T22:05:13.978Z,74.15
2022-11-04T22:08:01.186Z,72.28
2022-11-04T22:10:28.785Z,66.88
2022-11-04T22:12:55.860Z,74.45
2022-11-04T22:15:48.465Z,73.93
2022-11-04T22:18:15.318Z,72.35
2022-11-04T22:20:41.627Z,77.32
2022-11-04T22:23:08.282Z,78.05
2022-11-04T22:25:34.848Z,82.32
2022-11-04T22:28:01.206Z,81.38
2022-11-04T22:30:28.021Z,78.20
2022-11-04T22:32:54.334Z,79.13
2022-11-04T22:35:20.849Z,78.00
2022-11-04T22:37:47.140Z,76.80
2022-11-04T22:40:13.469Z,80.82
2022-11-04T22:42:39.989Z,78.97
2022-11-04T22:45:06.589Z,78.97
2022-11-04T22:47:32.962Z,76.55
2022-11-04T22:49:59.324Z,77.38
2022-11-04T22:52:25.653Z,73.07
2022-11-04T22:54:51.969Z,77.78
2022-11-04T22:57:18.266Z,81.50
2022-11-04T22:59:44.636Z,79.53
2022-11-04T23:02:11.117Z,79.80
2022-11-04T23:04:37.775Z,72.82
2022-11-04T23:07:04.633Z,83.43
2022-11-04T23:09:31.827Z,74.53
2022-11-04T23:12:16.893Z,75.85
2022-11-04T23:14:43.255Z,74.32
2022-11-04T23:17:39.197Z,78.18
2022-11-04T23:20:13.049Z,77.45
2022-11-04T23:22:57.955Z,73.63
2022-11-04T23:25:25.154Z,70.53
2022-11-04T23:28:12.091Z,69.70
2022-11-04T23:30:44.956Z,72.90
2022-11-04T23:33:14.561Z,72.22
2022-11-04T23:36:02.896Z,74.38
2022-11-04T23:38:29.921Z,72.90
2022-11-04T23:41:25.953Z,72.50
2022-11-04T23:43:52.338Z,68.22
2022-11-04T23:46:42.704Z,70.90
2022-11-04T23:49:31.297Z,66.15
2022-11-04T23:52:15.980Z,66.18
2022-11-04T23:55:01.158Z,73.65
2022-11-04T23:57:45.982Z,72.70
